Bebington, United Kingdom
Current Conditions -  °F | °C
As of 11:50 AM on Wednesday 28 Jan 2015 (Local Time) from EGGP Reporting Station
Rain Showers Rain Showers  
Wind Chill: 30°   Ceiling: 4000
Heat Index: 41°   Visibility: 6mi
Dew Point: 32°   Wind: 30mph
Humidity: 70%   Direction: 280°W
Pressure: 29.5"   Gusts: 44mph
Location:  53.35°N, 3°W
Report Text: EGGP 281150Z 28026G38KT 9999 VCSH SCT030 BKN040 05/00 Q0999
Loading
Personal Weather Stations






























Interactive Weather Map New forecast layout! Learn more

10-Day Weather Forecast

Advertisements
Track Severe Weather on mobile